Time;durP1;ratioP1;P1;durP2;ratioP2;P2;SDS_P1;SDS_P2;PMS_P1;PMS_P2;Temp;Humidity;BMP_temperature;BMP_pressure;BME280_temperature;BME280_humidity;BME280_pressure;Samples;Min_cycle;Max_cycle;Signal;HPM_P1;HPM_P2
2024/01/25 00:02:30;;;;;;;13.07;7.32;;;;;;;-145.48;100.00;64539.38;6282583;28;20055;-91
2024/01/25 00:05:32;;;;;;;5.70;5.50;;;;;;;-145.48;100.00;64539.38;6280104;28;20044;-92
2024/01/25 00:08:35;;;;;;;7.10;6.80;;;;;;;-145.48;100.00;64539.38;6288449;28;20133;-91
2024/01/25 00:11:37;;;;;;;7.72;7.18;;;;;;;-145.48;100.00;64539.38;6275653;28;20158;-89
2024/01/25 00:14:39;;;;;;;7.78;7.47;;;;;;;-145.48;100.00;64539.38;6285513;28;20044;-91
2024/01/25 00:17:42;;;;;;;14.30;12.55;;;;;;;-145.48;100.00;64539.38;6270313;28;20740;-90
2024/01/25 00:20:44;;;;;;;7.65;7.00;;;;;;;-145.48;100.00;64539.38;6275732;28;20138;-90
2024/01/25 00:23:47;;;;;;;7.72;7.25;;;;;;;-145.48;100.00;64539.38;6279989;28;20668;-91
2024/01/25 00:26:49;;;;;;;7.15;6.72;;;;;;;-145.48;100.00;64539.38;6277234;28;20125;-91
2024/01/25 00:29:54;;;;;;;7.32;6.93;;;;;;;-145.48;100.00;64539.38;6280800;28;20043;-91
2024/01/25 00:32:57;;;;;;;6.90;6.60;;;;;;;-145.48;100.00;64539.38;6264467;28;20561;-92
2024/01/25 00:36:02;;;;;;;8.25;7.65;;;;;;;-145.48;100.00;64539.38;6273574;28;20032;-91
2024/01/25 00:39:04;;;;;;;6.25;5.85;;;;;;;-145.48;100.00;64539.38;6277209;28;20059;-91
2024/01/25 00:42:07;;;;;;;6.13;5.93;;;;;;;-145.48;100.00;64539.38;6279214;28;20052;-91
2024/01/25 00:45:10;;;;;;;7.45;7.00;;;;;;;-145.48;100.00;64539.38;6283386;28;20058;-91
2024/01/25 00:48:13;;;;;;;9.48;7.30;;;;;;;-145.48;100.00;64539.38;6277431;28;20053;-91
2024/01/25 00:51:20;;;;;;;6.10;5.90;;;;;;;-145.48;100.00;64539.38;6287450;28;20106;-91
2024/01/25 00:54:22;;;;;;;20.17;7.47;;;;;;;-145.48;100.00;64539.38;6275273;28;20237;-92
2024/01/25 00:57:25;;;;;;;7.50;6.97;;;;;;;-145.48;100.00;64539.38;6278744;28;20529;-92
2024/01/25 01:00:27;;;;;;;6.85;6.40;;;;;;;-145.48;100.00;64539.38;6285125;28;20043;-91
2024/01/25 01:03:29;;;;;;;6.60;5.97;;;;;;;-145.48;100.00;64539.38;6282240;28;20457;-91
2024/01/25 01:06:34;;;;;;;8.15;7.65;;;;;;;-145.48;100.00;64539.38;6277129;28;20041;-90
2024/01/25 01:09:36;;;;;;;7.75;7.35;;;;;;;-145.48;100.00;64539.38;6281717;28;20052;-91
2024/01/25 01:12:38;;;;;;;6.70;6.07;;;;;;;-145.48;100.00;64539.38;6274805;28;20463;-90
2024/01/25 01:15:40;;;;;;;11.38;6.82;;;;;;;-145.48;100.00;64539.38;6283319;28;20053;-91
2024/01/25 01:18:46;;;;;;;6.38;6.07;;;;;;;-145.48;100.00;64539.38;6284482;28;20040;-91
2024/01/25 01:21:48;;;;;;;6.00;5.70;;;;;;;-145.48;100.00;64539.38;6275353;28;20559;-91
2024/01/25 01:24:50;;;;;;;7.00;6.38;;;;;;;-145.48;100.00;64539.38;6286251;28;20047;-91
2024/01/25 01:27:52;;;;;;;7.00;6.60;;;;;;;-145.48;100.00;64539.38;6282113;28;20040;-91
2024/01/25 01:30:54;;;;;;;6.63;6.32;;;;;;;-145.48;100.00;64539.38;6274532;28;20123;-90
2024/01/25 01:33:57;;;;;;;7.88;7.45;;;;;;;-145.48;100.00;64539.38;6288295;28;20044;-90
2024/01/25 01:37:02;;;;;;;7.60;5.43;;;;;;;-145.48;100.00;64539.38;6293750;28;20512;-92
2024/01/25 01:40:05;;;;;;;6.25;6.05;;;;;;;-145.48;100.00;64539.38;6278967;28;20045;-92
2024/01/25 01:43:07;;;;;;;6.10;5.88;;;;;;;-145.48;100.00;64539.38;6280842;28;20402;-91
2024/01/25 01:46:12;;;;;;;15.45;7.00;;;;;;;-145.48;100.00;64539.38;6283304;28;20616;-90
2024/01/25 01:49:14;;;;;;;6.95;6.55;;;;;;;-145.48;100.00;64539.38;6271857;28;20086;-91
2024/01/25 01:52:18;;;;;;;7.25;6.75;;;;;;;-145.48;100.00;64539.38;6274409;28;20044;-90
2024/01/25 01:55:21;;;;;;;7.25;6.85;;;;;;;-145.48;100.00;64539.38;6282138;28;20123;-91
2024/01/25 01:58:25;;;;;;;6.93;6.28;;;;;;;-145.48;100.00;64539.38;6285422;28;20226;-91
2024/01/25 02:01:28;;;;;;;6.22;5.93;;;;;;;-145.48;100.00;64539.38;6281166;28;20040;-91
2024/01/25 02:04:30;;;;;;;7.72;7.18;;;;;;;-145.48;100.00;64539.38;6282153;28;20093;-91
2024/01/25 02:07:33;;;;;;;7.20;6.82;;;;;;;-145.48;100.00;64539.38;6280478;28;20044;-91
2024/01/25 02:10:35;;;;;;;11.40;6.53;;;;;;;-145.48;100.00;64539.38;6283901;28;20045;-90
2024/01/25 02:13:37;;;;;;;7.85;7.15;;;;;;;-145.48;100.00;64539.38;6290964;28;20159;-90
2024/01/25 02:16:43;;;;;;;6.93;6.63;;;;;;;-145.48;100.00;64539.38;6290842;28;20037;-91
2024/01/25 02:19:45;;;;;;;6.32;6.03;;;;;;;-145.48;100.00;64539.38;6281913;28;20045;-90
2024/01/25 02:22:47;;;;;;;9.40;8.25;;;;;;;-145.48;100.00;64539.38;6280768;28;20048;-90
2024/01/25 02:25:49;;;;;;;6.53;6.13;;;;;;;-145.48;100.00;64539.38;6284812;28;20534;-90
2024/01/25 02:28:52;;;;;;;12.30;7.72;;;;;;;-145.48;100.00;64539.38;6286975;28;20414;-90
2024/01/25 02:31:56;;;;;;;9.60;7.68;;;;;;;-145.48;100.00;64539.38;6279813;28;20034;-91
2024/01/25 02:34:58;;;;;;;10.13;6.30;;;;;;;-145.48;100.00;64539.38;6279524;28;20039;-91
2024/01/25 02:38:03;;;;;;;7.10;6.57;;;;;;;-145.48;100.00;64539.38;6285914;28;20044;-90
2024/01/25 02:41:05;;;;;;;7.20;6.90;;;;;;;-145.48;100.00;64539.38;6283667;28;20394;-91
2024/01/25 02:44:08;;;;;;;6.20;5.90;;;;;;;-145.48;100.00;64539.38;6285674;28;20044;-91
2024/01/25 02:47:11;;;;;;;7.80;6.72;;;;;;;-145.48;100.00;64539.38;6267391;28;20060;-91
2024/01/25 02:50:13;;;;;;;7.22;6.72;;;;;;;-145.48;100.00;64539.38;6286803;28;20044;-92
2024/01/25 02:53:15;;;;;;;6.22;5.95;;;;;;;-145.48;100.00;64539.38;6284576;28;20324;-90
2024/01/25 02:56:17;;;;;;;8.57;7.85;;;;;;;-145.48;100.00;64539.38;6275710;28;20494;-91
2024/01/25 02:59:19;;;;;;;13.15;6.65;;;;;;;-145.48;100.00;64539.38;6275536;28;20040;-90
2024/01/25 03:02:21;;;;;;;7.32;6.80;;;;;;;-145.48;100.00;64539.38;6293885;28;20040;-90
2024/01/25 03:05:23;;;;;;;15.07;7.25;;;;;;;-145.48;100.00;64539.38;6280774;28;20040;-90
2024/01/25 03:08:26;;;;;;;7.40;6.90;;;;;;;-145.48;100.00;64539.38;6279305;28;20048;-90
2024/01/25 03:11:28;;;;;;;7.40;6.97;;;;;;;-145.48;100.00;64539.38;6284842;28;20048;-90
2024/01/25 03:14:31;;;;;;;8.90;8.07;;;;;;;-145.48;100.00;64539.38;6282029;28;20124;-90
2024/01/25 03:17:33;;;;;;;7.00;6.43;;;;;;;-145.48;100.00;64539.38;6277470;28;20045;-91
2024/01/25 03:20:35;;;;;;;12.20;7.78;;;;;;;-145.48;100.00;64539.38;6280431;28;20481;-91
2024/01/25 03:23:38;;;;;;;7.32;7.00;;;;;;;-145.48;100.00;64539.38;6267657;28;20041;-91
2024/01/25 03:26:40;;;;;;;7.22;6.50;;;;;;;-145.48;100.00;64539.38;6269895;28;20056;-91
2024/01/25 03:29:43;;;;;;;7.53;7.13;;;;;;;-145.48;100.00;64539.38;6285525;28;20418;-90
2024/01/25 03:32:46;;;;;;;6.65;6.18;;;;;;;-145.48;100.00;64539.38;6277200;28;20478;-91
2024/01/25 03:35:48;;;;;;;6.53;6.25;;;;;;;-145.48;100.00;64539.38;6269132;28;20052;-90
2024/01/25 03:38:52;;;;;;;7.15;6.75;;;;;;;-145.48;100.00;64539.38;6273589;28;20051;-91
2024/01/25 03:41:54;;;;;;;6.65;6.38;;;;;;;-145.48;100.00;64539.38;6274142;28;20040;-90
2024/01/25 03:44:57;;;;;;;6.63;6.22;;;;;;;-145.48;100.00;64539.38;6266524;28;20037;-90
2024/01/25 03:47:58;;;;;;;7.38;6.43;;;;;;;-145.48;100.00;64539.38;6281517;28;20036;-91
2024/01/25 03:51:01;;;;;;;7.55;7.07;;;;;;;-145.48;100.00;64539.38;6273975;28;20044;-90
2024/01/25 03:54:03;;;;;;;7.22;6.93;;;;;;;-145.48;100.00;64539.38;6282026;28;20043;-90
2024/01/25 03:57:05;;;;;;;6.78;6.20;;;;;;;-145.48;100.00;64539.38;6280279;28;20043;-90
2024/01/25 04:00:09;;;;;;;7.15;6.72;;;;;;;-145.48;100.00;64539.38;6280617;28;20420;-91
2024/01/25 04:03:11;;;;;;;5.30;5.15;;;;;;;-145.48;100.00;64539.38;6284712;28;20051;-90
2024/01/25 04:06:13;;;;;;;19.58;6.43;;;;;;;-145.48;100.00;64539.38;6281264;28;20041;-90
2024/01/25 04:09:15;;;;;;;6.40;6.20;;;;;;;-145.48;100.00;64539.38;6279413;28;20045;-90
2024/01/25 04:12:17;;;;;;;7.22;6.93;;;;;;;-145.48;100.00;64539.38;6288372;28;20097;-90
2024/01/25 04:15:20;;;;;;;8.30;6.65;;;;;;;-145.48;100.00;64539.38;6283579;28;20044;-90
2024/01/25 04:18:22;;;;;;;8.10;7.35;;;;;;;-145.48;100.00;64539.38;6285557;28;20502;-90
2024/01/25 04:21:24;;;;;;;7.00;6.60;;;;;;;-145.48;100.00;64539.38;6278867;28;20094;-90
2024/01/25 04:24:26;;;;;;;7.20;6.65;;;;;;;-145.48;100.00;64539.38;6280946;28;20712;-90
2024/01/25 04:27:28;;;;;;;6.65;6.25;;;;;;;-145.48;100.00;64539.38;6286080;28;20037;-90
2024/01/25 04:30:32;;;;;;;6.90;6.45;;;;;;;-145.48;100.00;64539.38;6275677;28;20492;-90
2024/01/25 04:33:34;;;;;;;6.13;5.82;;;;;;;-145.48;100.00;64539.38;6284343;28;20040;-90
2024/01/25 04:36:36;;;;;;;6.60;6.28;;;;;;;-145.48;100.00;64539.38;6283432;28;20142;-90
2024/01/25 04:39:38;;;;;;;8.43;7.72;;;;;;;-145.48;100.00;64539.38;6274397;28;20053;-90
2024/01/25 04:42:42;;;;;;;7.28;6.97;;;;;;;-145.48;100.00;64539.38;6274220;28;20047;-90
2024/01/25 04:45:44;;;;;;;7.93;7.35;;;;;;;-145.48;100.00;64539.38;6280545;28;20109;-90
2024/01/25 04:48:46;;;;;;;8.20;7.20;;;;;;;-145.48;100.00;64539.38;6291396;28;20059;-90
2024/01/25 04:51:49;;;;;;;7.53;6.90;;;;;;;-145.48;100.00;64539.38;6292055;28;20094;-90
2024/01/25 04:54:52;;;;;;;7.75;7.13;;;;;;;-145.48;100.00;64539.38;6279288;28;20458;-90
2024/01/25 04:57:56;;;;;;;6.63;6.32;;;;;;;-145.48;100.00;64539.38;6291982;28;20044;-90
2024/01/25 05:00:59;;;;;;;6.25;5.95;;;;;;;-145.48;100.00;64539.38;6289126;28;20039;-90
2024/01/25 05:04:03;;;;;;;6.18;5.88;;;;;;;-145.48;100.00;64539.38;6297078;28;20033;-90
2024/01/25 05:07:05;;;;;;;5.43;5.22;;;;;;;-145.48;100.00;64539.38;6294570;28;20123;-90
2024/01/25 05:10:08;;;;;;;6.85;6.40;;;;;;;-145.48;100.00;64539.38;6291694;28;20037;-89
2024/01/25 05:13:12;;;;;;;14.23;6.43;;;;;;;-145.48;100.00;64539.38;6289476;28;20186;-90
2024/01/25 05:16:15;;;;;;;6.43;6.13;;;;;;;-145.48;100.00;64539.38;6288260;28;20126;-90
2024/01/25 05:19:19;;;;;;;11.90;6.40;;;;;;;-145.48;100.00;64539.38;6284145;28;20040;-91
2024/01/25 05:22:26;;;;;;;7.13;6.68;;;;;;;-145.48;100.00;64539.38;6289167;28;20119;-91
2024/01/25 05:25:31;;;;;;;6.13;5.93;;;;;;;-145.48;100.00;64539.38;6280653;28;20187;-90
2024/01/25 05:28:35;;;;;;;7.28;6.88;;;;;;;-145.48;100.00;64539.38;6282706;28;20067;-90
2024/01/25 05:31:38;;;;;;;10.55;7.40;;;;;;;-145.48;100.00;64539.38;6294496;28;20439;-90
2024/01/25 05:34:40;;;;;;;6.68;6.20;;;;;;;-145.48;100.00;64539.38;6270204;28;20059;-90
2024/01/25 05:37:43;;;;;;;6.70;6.20;;;;;;;-145.48;100.00;64539.38;6280180;28;20037;-90
2024/01/25 05:40:45;;;;;;;5.47;5.28;;;;;;;-145.48;100.00;64539.38;6276119;28;20537;-90
2024/01/25 05:43:47;;;;;;;11.90;6.07;;;;;;;-145.48;100.00;64539.38;6290347;28;20036;-90
2024/01/25 05:46:49;;;;;;;14.18;7.88;;;;;;;-145.48;100.00;64539.38;6284512;28;20364;-90
2024/01/25 05:49:51;;;;;;;6.40;6.18;;;;;;;-145.48;100.00;64539.38;6264718;28;20053;-90
2024/01/25 05:52:53;;;;;;;6.90;6.47;;;;;;;-145.48;100.00;64539.38;6286065;28;20036;-90
2024/01/25 05:55:55;;;;;;;6.90;6.55;;;;;;;-145.48;100.00;64539.38;6297868;28;20040;-91
2024/01/25 05:58:57;;;;;;;13.00;6.28;;;;;;;-145.48;100.00;64539.38;6273811;28;20064;-91
2024/01/25 06:01:59;;;;;;;7.18;6.78;;;;;;;-145.48;100.00;64539.38;6281259;28;20172;-90
2024/01/25 06:05:02;;;;;;;7.63;6.65;;;;;;;-145.48;100.00;64539.38;6269169;28;20055;-90
2024/01/25 06:08:04;;;;;;;6.70;6.35;;;;;;;-145.48;100.00;64539.38;6289175;28;20044;-90
2024/01/25 06:11:09;;;;;;;6.60;6.30;;;;;;;-145.48;100.00;64539.38;6275927;28;20049;-91
2024/01/25 06:14:11;;;;;;;6.65;5.85;;;;;;;-145.48;100.00;64539.38;6279160;28;20040;-91
2024/01/25 06:17:13;;;;;;;6.75;6.43;;;;;;;-145.48;100.00;64539.38;6275777;28;20154;-90
2024/01/25 06:20:15;;;;;;;10.05;6.80;;;;;;;-145.48;100.00;64539.38;6282666;28;20654;-90
2024/01/25 06:23:20;;;;;;;7.53;7.03;;;;;;;-145.48;100.00;64539.38;6265274;28;20048;-91
2024/01/25 06:26:24;;;;;;;6.85;6.45;;;;;;;-145.48;100.00;64539.38;6283592;28;20033;-91
2024/01/25 06:29:26;;;;;;;11.52;6.95;;;;;;;-145.48;100.00;64539.38;6277932;28;20045;-91
2024/01/25 06:32:28;;;;;;;13.60;6.53;;;;;;;-145.48;100.00;64539.38;6287706;28;20037;-90
2024/01/25 06:35:32;;;;;;;7.60;6.05;;;;;;;-145.48;100.00;64539.38;6274469;28;20044;-91
2024/01/25 06:38:35;;;;;;;6.32;6.00;;;;;;;-145.48;100.00;64539.38;6282782;28;20345;-90
2024/01/25 06:41:40;;;;;;;6.63;6.32;;;;;;;-145.48;100.00;64539.38;6284602;28;20908;-91
2024/01/25 06:44:42;;;;;;;8.70;7.65;;;;;;;-145.48;100.00;64539.38;6291578;28;20059;-90
2024/01/25 06:47:44;;;;;;;6.78;6.38;;;;;;;-145.48;100.00;64539.38;6279028;28;20045;-90
2024/01/25 06:50:46;;;;;;;10.02;7.53;;;;;;;-145.48;100.00;64539.38;6278859;28;20117;-90
2024/01/25 06:53:48;;;;;;;7.15;6.78;;;;;;;-145.48;100.00;64539.38;6266032;28;20607;-90
2024/01/25 06:56:51;;;;;;;6.57;6.28;;;;;;;-145.48;100.00;64539.38;6282492;28;20097;-90
2024/01/25 06:59:53;;;;;;;14.45;7.30;;;;;;;-145.48;100.00;64539.38;6281639;28;20421;-89
2024/01/25 07:02:59;;;;;;;6.70;6.35;;;;;;;-145.48;100.00;64539.38;6284001;28;20067;-91
2024/01/25 07:06:05;;;;;;;7.70;7.30;;;;;;;-145.48;100.00;64539.38;6282638;28;20074;-90
2024/01/25 07:09:11;;;;;;;6.22;6.00;;;;;;;-145.48;100.00;64539.38;6288331;28;20045;-90
2024/01/25 07:12:13;;;;;;;7.10;6.80;;;;;;;-145.48;100.00;64539.38;6288856;28;20047;-91
2024/01/25 07:15:17;;;;;;;5.78;5.57;;;;;;;-145.48;100.00;64539.38;6284251;28;20119;-90
2024/01/25 07:18:19;;;;;;;7.97;7.07;;;;;;;-145.48;100.00;64539.38;6287464;28;20028;-90
2024/01/25 07:21:21;;;;;;;7.72;7.18;;;;;;;-145.48;100.00;64539.38;6287725;28;20051;-90
2024/01/25 07:24:40;;;;;;;6.78;6.38;;;;;;;-145.48;100.00;64539.38;6284139;28;20519;-90
2024/01/25 07:27:56;;;;;;;16.23;9.18;;;;;;;-145.48;100.00;64539.38;6281934;28;20036;-90
2024/01/25 07:31:51;;;;;;;6.13;5.82;;;;;;;-145.48;100.00;64539.38;6283753;28;20467;-90
2024/01/25 07:35:18;;;;;;;6.97;6.57;;;;;;;-145.48;100.00;64539.38;6278946;28;20068;-90
2024/01/25 07:38:31;;;;;;;7.15;6.63;;;;;;;-145.48;100.00;64539.38;6277587;28;20039;-90
2024/01/25 07:41:36;;;;;;;7.60;7.07;;;;;;;-145.48;100.00;64539.38;6282734;28;20836;-90
2024/01/25 07:44:40;;;;;;;7.85;7.30;;;;;;;-145.48;100.00;64539.38;6280575;28;20403;-90
2024/01/25 07:47:45;;;;;;;8.05;6.30;;;;;;;-145.48;100.00;64539.38;6271400;28;20521;-90
2024/01/25 07:50:48;;;;;;;7.25;6.95;;;;;;;-145.48;100.00;64539.38;6278661;28;20041;-90
2024/01/25 07:53:51;;;;;;;14.10;12.85;;;;;;;-145.48;100.00;64539.38;6293011;28;20166;-90
2024/01/25 07:56:53;;;;;;;7.55;6.88;;;;;;;-145.48;100.00;64539.38;6287968;28;20468;-90
2024/01/25 07:59:55;;;;;;;6.22;6.03;;;;;;;-145.48;100.00;64539.38;6290317;28;20555;-90
2024/01/25 08:02:57;;;;;;;6.68;6.38;;;;;;;-145.48;100.00;64539.38;6288067;28;20049;-90
2024/01/25 08:06:03;;;;;;;6.15;5.95;;;;;;;-145.48;100.00;64539.38;6277779;28;20052;-90
2024/01/25 08:09:05;;;;;;;5.88;5.68;;;;;;;-145.48;100.00;64539.38;6272890;28;20071;-90
2024/01/25 08:12:08;;;;;;;5.95;5.65;;;;;;;-145.48;100.00;64539.38;6266093;28;20418;-90
2024/01/25 08:15:10;;;;;;;6.57;6.13;;;;;;;-145.48;100.00;64539.38;6279259;28;20037;-90
2024/01/25 08:18:12;;;;;;;7.90;7.28;;;;;;;-145.48;100.00;64539.38;6286601;28;20573;-90
2024/01/25 08:21:15;;;;;;;6.22;6.03;;;;;;;-145.48;100.00;64539.38;6283981;28;20055;-90
2024/01/25 08:24:18;;;;;;;6.30;6.00;;;;;;;-145.48;100.00;64539.38;6286753;28;20041;-90
2024/01/25 08:27:26;;;;;;;6.53;6.25;;;;;;;-145.48;100.00;64539.38;6286209;28;20036;-96
2024/01/25 08:30:42;;;;;;;;;;;;;;;-145.48;100.00;64539.38;6275403;28;20151;-95
2024/01/25 08:33:48;;;;;;;5.68;5.47;;;;;;;-145.48;100.00;64539.38;6276463;28;19981;-95
2024/01/25 08:36:55;;;;;;;5.43;5.22;;;;;;;-145.48;100.00;64539.38;6287035;28;20394;-95
2024/01/25 08:40:09;;;;;;;7.80;7.40;;;;;;;-145.48;100.00;64539.38;6269832;28;20052;-96
2024/01/25 08:43:14;;;;;;;7.18;6.78;;;;;;;-145.48;100.00;64539.38;6273410;28;20044;-94
2024/01/25 08:46:18;;;;;;;6.75;6.45;;;;;;;-145.48;100.00;64539.38;6265905;28;20048;-95
2024/01/25 08:49:24;;;;;;;7.15;6.38;;;;;;;-145.48;100.00;64539.38;6286790;28;20099;-95
2024/01/25 08:52:42;;;;;;;6.72;6.38;;;;;;;-145.48;100.00;64539.38;6277994;28;20422;-94
2024/01/25 08:55:53;;;;;;;8.15;7.50;;;;;;;-145.48;100.00;64539.38;6294651;28;20052;-96
2024/01/25 08:59:09;;;;;;;7.47;6.45;;;;;;;-145.48;100.00;64539.38;6290024;28;20037;-94
2024/01/25 09:02:11;;;;;;;7.78;7.07;;;;;;;-145.48;100.00;64539.38;6254910;28;20132;-96
2024/01/25 09:05:45;;;;;;;7.77;7.10;;;;;;;-145.48;100.00;64539.38;6279334;28;20094;-96
2024/01/25 09:08:54;;;;;;;8.70;8.20;;;;;;;-145.48;100.00;64539.38;6279391;28;20079;-95
2024/01/25 09:12:17;;;;;;;7.90;7.17;;;;;;;-145.48;100.00;64539.38;6267649;28;20090;-95
2024/01/25 09:15:26;;;;;;;6.85;6.55;;;;;;;-145.48;100.00;64539.38;6257052;28;20090;-93
2024/01/25 09:18:31;;;;;;;7.22;6.72;;;;;;;-145.48;100.00;64539.38;6283142;28;20041;-95
2024/01/25 09:21:59;;;;;;;6.80;6.53;;;;;;;-145.48;100.00;64539.38;6270409;28;20060;-94
2024/01/25 09:25:03;;;;;;;16.88;6.68;;;;;;;-145.48;100.00;64539.38;6274168;28;20044;-94
2024/01/25 09:28:12;;;;;;;8.02;7.55;;;;;;;-145.48;100.00;64539.38;6263297;28;20455;-95
2024/01/25 09:31:22;;;;;;;6.82;6.53;;;;;;;-145.48;100.00;64539.38;6278554;28;20037;-94
2024/01/25 09:34:28;;;;;;;16.58;6.65;;;;;;;-145.48;100.00;64539.38;6288272;28;20044;-94
2024/01/25 09:37:33;;;;;;;7.05;6.75;;;;;;;-145.48;100.00;64539.38;6284622;28;20059;-95
2024/01/25 09:40:41;;;;;;;6.88;6.32;;;;;;;-145.48;100.00;64539.38;6287108;28;20047;-95
2024/01/25 09:43:47;;;;;;;6.07;5.88;;;;;;;-145.48;100.00;64539.38;6297016;28;20041;-94
2024/01/25 09:46:57;;;;;;;5.93;5.63;;;;;;;-145.48;100.00;64539.38;6284262;28;20329;-94
2024/01/25 09:50:08;;;;;;;;;;;;;;;-145.48;100.00;64539.38;6271192;28;20052;-93
2024/01/25 09:53:17;;;;;;;10.30;6.45;;;;;;;-145.48;100.00;64539.38;6286083;28;19975;-95
2024/01/25 09:56:23;;;;;;;6.57;6.28;;;;;;;-145.48;100.00;64539.38;6285023;28;20040;-94
2024/01/25 09:59:26;;;;;;;7.10;5.90;;;;;;;-145.48;100.00;64539.38;6286231;28;20040;-95
2024/01/25 10:02:35;;;;;;;8.80;7.15;;;;;;;-145.48;100.00;64539.38;6281367;28;20553;-93
2024/01/25 10:05:43;;;;;;;6.95;6.38;;;;;;;-145.48;100.00;64539.38;6281665;28;20056;-93
2024/01/25 10:08:53;;;;;;;14.90;7.85;;;;;;;-145.48;100.00;64539.38;6279727;28;20044;-95
2024/01/25 10:11:58;;;;;;;5.97;5.78;;;;;;;-145.48;100.00;64539.38;6284728;28;20498;-95
2024/01/25 10:15:19;;;;;;;;;;;;;;;-145.48;100.00;64539.38;6283183;28;20048;-94
2024/01/25 10:18:31;;;;;;;6.60;6.40;;;;;;;-145.48;100.00;64539.38;6287805;28;19924;-95
2024/01/25 10:21:36;;;;;;;6.63;6.15;;;;;;;-145.48;100.00;64539.38;6298834;28;20362;-92
2024/01/25 10:24:40;;;;;;;6.95;6.57;;;;;;;-145.48;100.00;64539.38;6282849;28;20040;-93
2024/01/25 10:27:42;;;;;;;6.20;5.97;;;;;;;-145.48;100.00;64539.38;6287113;28;20045;-95
2024/01/25 10:30:50;;;;;;;7.35;6.97;;;;;;;-145.48;100.00;64539.38;6280005;28;20546;-96
2024/01/25 10:33:56;;;;;;;14.10;7.10;;;;;;;-145.48;100.00;64539.38;6292795;28;20522;-95
2024/01/25 10:37:14;;;;;;;7.03;6.72;;;;;;;-145.48;100.00;64539.38;6282193;28;20044;-86
2024/01/25 10:40:18;;;;;;;7.18;6.75;;;;;;;-145.48;100.00;64539.38;6285996;28;20398;-93
2024/01/25 10:43:27;;;;;;;7.03;6.40;;;;;;;-145.48;100.00;64539.38;6276154;28;20191;-93
2024/01/25 10:46:35;;;;;;;6.43;6.03;;;;;;;-145.48;100.00;64539.38;6282023;28;20072;-95
2024/01/25 10:49:48;;;;;;;6.30;6.00;;;;;;;-145.48;100.00;64539.38;6279947;28;20105;-95
2024/01/25 10:52:55;;;;;;;7.93;6.45;;;;;;;-145.48;100.00;64539.38;6281542;28;20574;-94
2024/01/25 10:56:12;;;;;;;6.05;5.72;;;;;;;-145.48;100.00;64539.38;6272590;28;20052;-95
2024/01/25 10:59:32;;;;;;;6.28;5.82;;;;;;;-145.48;100.00;64539.38;6274960;28;20055;-95
2024/01/25 11:02:36;;;;;;;6.85;6.55;;;;;;;-145.48;100.00;64539.38;6284662;28;20215;-95
2024/01/25 11:06:06;;;;;;;7.85;7.40;;;;;;;-145.48;100.00;64539.38;6279880;28;20049;-93
2024/01/25 11:09:09;;;;;;;6.90;6.60;;;;;;;-145.48;100.00;64539.38;6287280;28;20117;-93
2024/01/25 11:12:13;;;;;;;7.82;7.32;;;;;;;-145.48;100.00;64539.38;6281863;28;20045;-94
2024/01/25 11:15:25;;;;;;;6.60;6.30;;;;;;;-145.48;100.00;64539.38;6274022;28;20072;-92
2024/01/25 11:18:32;;;;;;;6.72;6.43;;;;;;;-145.48;100.00;64539.38;6285485;28;20439;-95
2024/01/25 11:21:42;;;;;;;6.60;6.30;;;;;;;-145.48;100.00;64539.38;6282666;28;20214;-93
2024/01/25 11:24:45;;;;;;;7.50;7.15;;;;;;;-145.48;100.00;64539.38;6285869;28;20117;-93
2024/01/25 11:28:00;;;;;;;7.20;6.90;;;;;;;-145.48;100.00;64539.38;6274480;28;20403;-95
2024/01/25 11:31:07;;;;;;;6.93;6.45;;;;;;;-145.48;100.00;64539.38;6284276;28;20101;-92
2024/01/25 11:34:11;;;;;;;5.20;5.05;;;;;;;-145.48;100.00;64539.38;6280782;28;20441;-93
2024/01/25 11:37:25;;;;;;;6.72;6.32;;;;;;;-145.48;100.00;64539.38;6287929;28;20040;-94
2024/01/25 11:40:49;;;;;;;8.35;6.60;;;;;;;-145.48;100.00;64539.38;6265080;28;20399;-95
2024/01/25 11:43:59;;;;;;;7.80;7.30;;;;;;;-145.48;100.00;64539.38;6273964;28;20033;-93
2024/01/25 11:47:02;;;;;;;6.22;6.00;;;;;;;-145.48;100.00;64539.38;6291394;28;20040;-94
2024/01/25 11:50:14;;;;;;;5.68;5.47;;;;;;;-145.48;100.00;64539.38;6293179;28;20033;-93
2024/01/25 11:53:17;;;;;;;14.45;7.68;;;;;;;-145.48;100.00;64539.38;6256848;28;20403;-93
2024/01/25 11:56:25;;;;;;;7.13;6.82;;;;;;;-145.48;100.00;64539.38;6280722;28;20529;-94
2024/01/25 11:59:28;;;;;;;6.35;6.05;;;;;;;-145.48;100.00;64539.38;6281153;28;20045;-93
2024/01/25 12:02:31;;;;;;;6.78;6.47;;;;;;;-145.48;100.00;64539.38;6285828;28;20129;-93
2024/01/25 12:05:33;;;;;;;6.22;6.03;;;;;;;-145.48;100.00;64539.38;6286660;28;20402;-91
2024/01/25 12:08:36;;;;;;;6.95;6.43;;;;;;;-145.48;100.00;64539.38;6272918;28;20041;-94
2024/01/25 12:11:44;;;;;;;7.32;6.82;;;;;;;-145.48;100.00;64539.38;6271075;28;20778;-94
2024/01/25 12:14:47;;;;;;;6.55;6.20;;;;;;;-145.48;100.00;64539.38;6283153;28;20059;-91
2024/01/25 12:17:54;;;;;;;6.32;6.13;;;;;;;-145.48;100.00;64539.38;6279165;28;20205;-95
2024/01/25 12:21:00;;;;;;;11.38;6.40;;;;;;;-145.48;100.00;64539.38;6280523;28;20649;-96
2024/01/25 12:24:08;;;;;;;7.30;6.55;;;;;;;-145.48;100.00;64539.38;6242215;28;20676;-92
2024/01/25 12:27:13;;;;;;;6.20;5.95;;;;;;;-145.48;100.00;64539.38;6257234;28;20098;-89
2024/01/25 12:30:15;;;;;;;7.05;6.65;;;;;;;-145.48;100.00;64539.38;6268207;28;20214;-89
2024/01/25 12:33:17;;;;;;;9.43;8.68;;;;;;;-145.48;100.00;64539.38;6263801;28;20037;-87
2024/01/25 12:36:21;;;;;;;6.35;6.05;;;;;;;-145.48;100.00;64539.38;6267449;28;20044;-90
2024/01/25 12:39:24;;;;;;;6.53;6.03;;;;;;;-145.48;100.00;64539.38;6244115;28;20037;-93
2024/01/25 12:42:26;;;;;;;7.13;6.65;;;;;;;-145.48;100.00;64539.38;6241683;28;20051;-91
2024/01/25 12:45:28;;;;;;;6.68;6.07;;;;;;;-145.48;100.00;64539.38;6258771;28;20033;-92
2024/01/25 12:48:30;;;;;;;6.65;5.93;;;;;;;-145.48;100.00;64539.38;6250603;28;20034;-91
2024/01/25 12:51:33;;;;;;;7.72;7.20;;;;;;;-145.48;100.00;64539.38;6247675;28;20540;-94
2024/01/25 12:54:36;;;;;;;6.90;6.28;;;;;;;-145.48;100.00;64539.38;6254018;28;20049;-92
2024/01/25 12:57:38;;;;;;;6.55;6.35;;;;;;;-145.48;100.00;64539.38;6258839;28;20041;-92
2024/01/25 13:00:40;;;;;;;6.65;6.35;;;;;;;-145.48;100.00;64539.38;6252093;28;20057;-91
2024/01/25 13:03:45;;;;;;;5.78;5.57;;;;;;;-145.48;100.00;64539.38;6261808;28;20178;-92
2024/01/25 13:06:48;;;;;;;6.32;6.03;;;;;;;-145.48;100.00;64539.38;6263584;28;20043;-93
2024/01/25 13:09:50;;;;;;;5.45;5.25;;;;;;;-145.48;100.00;64539.38;6256142;28;20061;-91
2024/01/25 13:12:52;;;;;;;7.55;6.90;;;;;;;-145.48;100.00;64539.38;6266433;28;20399;-91
2024/01/25 13:15:54;;;;;;;6.10;5.90;;;;;;;-145.48;100.00;64539.38;6258725;28;20037;-91
2024/01/25 13:18:59;;;;;;;7.13;6.68;;;;;;;-145.48;100.00;64539.38;6260207;28;20045;-91
2024/01/25 13:22:02;;;;;;;5.82;5.57;;;;;;;-145.48;100.00;64539.38;6249759;28;20094;-91
2024/01/25 13:25:05;;;;;;;7.10;6.07;;;;;;;-145.48;100.00;64539.38;6273052;28;20048;-90
2024/01/25 13:28:08;;;;;;;5.68;5.40;;;;;;;-145.48;100.00;64539.38;6264250;28;20545;-90
2024/01/25 13:31:10;;;;;;;7.70;7.00;;;;;;;-145.48;100.00;64539.38;6257282;28;20586;-91
2024/01/25 13:34:12;;;;;;;6.32;6.03;;;;;;;-145.48;100.00;64539.38;6256204;28;20029;-91
2024/01/25 13:37:14;;;;;;;7.05;6.57;;;;;;;-145.48;100.00;64539.38;6258821;28;20031;-91
2024/01/25 13:40:16;;;;;;;15.45;6.15;;;;;;;-145.48;100.00;64539.38;6260191;28;20040;-91
2024/01/25 13:43:22;;;;;;;7.18;6.60;;;;;;;-145.48;100.00;64539.38;6267881;28;20048;-91
2024/01/25 13:46:24;;;;;;;7.07;6.68;;;;;;;-145.48;100.00;64539.38;6255843;28;20501;-91
2024/01/25 13:49:27;;;;;;;18.52;7.93;;;;;;;-145.48;100.00;64539.38;6255101;28;20030;-91
2024/01/25 13:52:29;;;;;;;6.97;6.57;;;;;;;-145.48;100.00;64539.38;6254884;28;20037;-91
2024/01/25 13:55:31;;;;;;;6.13;5.82;;;;;;;-145.48;100.00;64539.38;6262068;28;20040;-90
2024/01/25 13:58:33;;;;;;;6.80;6.50;;;;;;;-145.48;100.00;64539.38;6265658;28;20041;-89
2024/01/25 14:01:36;;;;;;;16.65;6.50;;;;;;;-145.48;100.00;64539.38;6258202;28;20113;-91